Ostermarsch — V2DO7 — position and weather

sailwx.info

Track history (hours):
 
Tides and Currents Weather Stations Pressure Air Temp Water Temp Dewpoint Dewpoint Depression Visibility Wind Speed Wind Dir Waves Ship Positions

Ostermarsch

Last reported at 2018-Feb-25 19:59 UTC. Time now 2018-Feb-25 20:05 UTC.
Position N 54°31' E 018°37'.

MMSI: 305283616.

Date/timePositionNaut miles runAvg speedWind from/ knotsBaromVisibWave heightAir tempDewpointWater temp
2018-Feb-25 19:59N 54°31' E 018°37'0 0.0
2018-Feb-25 19:29N 54°31' E 018°37'0 0.0
2018-Feb-25 18:59N 54°31' E 018°37'0 0.0
2018-Feb-25 18:29N 54°31' E 018°37'0 0.0
2018-Feb-25 17:56N 54°31' E 018°37'0 0.0
2018-Feb-25 17:29N 54°31' E 018°37'0 0.0
2018-Feb-25 16:59N 54°31' E 018°37'0 0.0
2018-Feb-25 16:29N 54°31' E 018°37'0 0.0
2018-Feb-25 15:59N 54°31' E 018°37'0 0.0
2018-Feb-25 15:29N 54°31' E 018°37'0 0.0
2018-Feb-25 14:59N 54°31' E 018°37'0 0.0
2018-Feb-25 14:29N 54°31' E 018°37'1 2.7
2018-Feb-25 14:00N 54°32' E 018°39'4 8.6
2018-Feb-25 13:30N 54°32' E 018°46'5 9.1
2018-Feb-25 13:00N 54°35' E 018°52'5 9.9
2018-Feb-25 12:30N 54°40' E 018°56'510.0
2018-Feb-25 11:59N 54°44' E 018°59'4 8.8
2018-Feb-25 11:30N 54°48' E 018°54'5 9.8
2018-Feb-25 10:59N 54°51' E 018°47'5 9.8
2018-Feb-25 10:29N 54°54' E 018°40'4 9.2
2018-Feb-25 10:01N 54°55' E 018°33'204 8.7
2018-Feb-24 10:24N 55°18' E 012°38'4 9.7
2018-Feb-24 10:00N 55°22' E 012°39'5 9.8
2018-Feb-24 09:30N 55°27' E 012°40'5 9.5
2018-Feb-24 09:00N 55°31' E 012°42'5 9.7
2018-Feb-24 08:30N 55°36' E 012°42'5 9.7
2018-Feb-24 08:00N 55°41' E 012°41'5 9.6
2018-Feb-24 07:30N 55°46' E 012°41'5 9.8
2018-Feb-24 07:00N 55°51' E 012°39'510.1
2018-Feb-24 06:30N 55°56' E 012°38'5 9.8
2018-Feb-24 06:00N 56°01' E 012°38'4 7.9
2018-Feb-24 05:30N 56°05' E 012°36'89 9.4
2018-Feb-23 20:07N 57°24' E 011°26'1 9.4
2018-Feb-23 20:00N 57°25' E 011°25'7 9.2
2018-Feb-23 19:16N 57°31' E 011°18'3 8.8
2018-Feb-23 18:56N 57°33' E 011°13'4 8.8
2018-Feb-23 18:28N 57°35' E 011°08'4 9.1
2018-Feb-23 18:00N 57°38' E 011°02'5 9.4
2018-Feb-23 17:30N 57°42' E 010°55'172 9.2
2018-Feb-22 22:43N 55°36' E 007°23'210.7
2018-Feb-22 22:30N 55°34' E 007°25'611.0
2018-Feb-22 21:59N 55°29' E 007°32'511.3
2018-Feb-22 21:30N 55°25' E 007°38'510.6
2018-Feb-22 21:00N 55°25' E 007°47'611.0
2018-Feb-22 20:30N 55°25' E 007°57'511.0
2018-Feb-22 20:00N 55°25' E 008°06'510.6
2018-Feb-22 19:30N 55°26' E 008°15'4 8.1
2018-Feb-22 18:58N 55°29' E 008°22'3 7.3
2018-Feb-22 18:30N 55°27' E 008°27'1 1.0
2018-Feb-22 17:59N 55°27' E 008°28'0 0.0
2018-Feb-22 17:26N 55°27' E 008°28'0 0.0
2018-Feb-22 16:59N 55°27' E 008°28'0 0.0
2018-Feb-22 16:02N 55°27' E 008°28'0 0.0
2018-Feb-22 15:47N 55°27' E 008°28'0 0.0
2018-Feb-22 15:29N 55°27' E 008°28'0 0.0
2018-Feb-22 14:59N 55°27' E 008°28'0 0.0
2018-Feb-22 14:20N 55°27' E 008°28'0 0.0
2018-Feb-22 13:50N 55°27' E 008°28'0 0.0
2018-Feb-22 13:02N 55°27' E 008°28'0 0.0
2018-Feb-22 12:50N 55°27' E 008°28'0 0.0
2018-Feb-22 12:20N 55°27' E 008°28'0 0.0
2018-Feb-22 11:50N 55°27' E 008°28'0 0.0
2018-Feb-22 11:17N 55°27' E 008°28'0 0.0
2018-Feb-22 10:38N 55°27' E 008°28'0 0.0
2018-Feb-22 10:23N 55°27' E 008°28'0 0.0
2018-Feb-22 09:53N 55°27' E 008°28'0 0.0
2018-Feb-22 09:26N 55°27' E 008°28'0 0.0
2018-Feb-22 08:56N 55°27' E 008°28'0 0.0
2018-Feb-22 08:23N 55°27' E 008°28'0 0.0
2018-Feb-22 07:53N 55°27' E 008°28'0 0.4
2018-Feb-22 07:30N 55°27' E 008°28'4 7.0
2018-Feb-22 07:00N 55°29' E 008°23'2911.3
2018-Feb-22 04:28N 55°12' E 007°42'511.9
2018-Feb-22 04:00N 55°09' E 007°35'612.0
2018-Feb-22 03:30N 55°05' E 007°27'612.0
2018-Feb-22 03:00N 55°01' E 007°18'29611.0
2018-Feb-21 00:08N 51°14' E 002°04'1 7.9
2018-Feb-21 00:00N 51°13' E 002°02'158 9.1
2018-Feb-20 06:36N 50°01' W 001°39'4 7.7
2018-Feb-20 06:05N 49°60' W 001°45'  
2018-Feb-16 22:24N 39°07' W 009°50'410.2
2018-Feb-16 22:00N 39°03' W 009°50'510.2
2018-Feb-16 21:30N 38°58' W 009°51'1110.1
2018-Feb-16 20:24N 38°47' W 009°51'410.3
2018-Feb-16 20:00N 38°42' W 009°51'510.0
2018-Feb-16 19:29N 38°37' W 009°49'  
Track history (hours):
 
Tides and Currents Weather Stations Pressure Air Temp Water Temp Dewpoint Dewpoint Depression Visibility Wind Speed Wind Dir Waves Ship Positions

Ostermarsch

Last reported at 2018-Feb-25 19:59 UTC. Time now 2018-Feb-25 20:05 UTC.
Position N 54°31' E 018°37'.

MMSI: 305283616.

Date/timePositionNaut miles runAvg speedWind from/ knotsBaromVisibWave heightAir tempDewpointWater temp
2018-Feb-25 19:59N 54°31' E 018°37'0 0.0
2018-Feb-25 19:29N 54°31' E 018°37'0 0.0
2018-Feb-25 18:59N 54°31' E 018°37'0 0.0
2018-Feb-25 18:29N 54°31' E 018°37'0 0.0
2018-Feb-25 17:56N 54°31' E 018°37'0 0.0
2018-Feb-25 17:29N 54°31' E 018°37'0 0.0
2018-Feb-25 16:59N 54°31' E 018°37'0 0.0
2018-Feb-25 16:29N 54°31' E 018°37'0 0.0
2018-Feb-25 15:59N 54°31' E 018°37'0 0.0
2018-Feb-25 15:29N 54°31' E 018°37'0 0.0
2018-Feb-25 14:59N 54°31' E 018°37'0 0.0
2018-Feb-25 14:29N 54°31' E 018°37'1 2.7
2018-Feb-25 14:00N 54°32' E 018°39'4 8.6
2018-Feb-25 13:30N 54°32' E 018°46'5 9.1
2018-Feb-25 13:00N 54°35' E 018°52'5 9.9
2018-Feb-25 12:30N 54°40' E 018°56'510.0
2018-Feb-25 11:59N 54°44' E 018°59'4 8.8
2018-Feb-25 11:30N 54°48' E 018°54'5 9.8
2018-Feb-25 10:59N 54°51' E 018°47'5 9.8
2018-Feb-25 10:29N 54°54' E 018°40'4 9.2
2018-Feb-25 10:01N 54°55' E 018°33'204 8.7
2018-Feb-24 10:24N 55°18' E 012°38'4 9.7
2018-Feb-24 10:00N 55°22' E 012°39'5 9.8
2018-Feb-24 09:30N 55°27' E 012°40'5 9.5
2018-Feb-24 09:00N 55°31' E 012°42'5 9.7
2018-Feb-24 08:30N 55°36' E 012°42'5 9.7
2018-Feb-24 08:00N 55°41' E 012°41'5 9.6
2018-Feb-24 07:30N 55°46' E 012°41'5 9.8
2018-Feb-24 07:00N 55°51' E 012°39'510.1
2018-Feb-24 06:30N 55°56' E 012°38'5 9.8
2018-Feb-24 06:00N 56°01' E 012°38'4 7.9
2018-Feb-24 05:30N 56°05' E 012°36'89 9.4
2018-Feb-23 20:07N 57°24' E 011°26'1 9.4
2018-Feb-23 20:00N 57°25' E 011°25'7 9.2
2018-Feb-23 19:16N 57°31' E 011°18'3 8.8
2018-Feb-23 18:56N 57°33' E 011°13'4 8.8
2018-Feb-23 18:28N 57°35' E 011°08'4 9.1
2018-Feb-23 18:00N 57°38' E 011°02'5 9.4
2018-Feb-23 17:30N 57°42' E 010°55'172 9.2
2018-Feb-22 22:43N 55°36' E 007°23'210.7
2018-Feb-22 22:30N 55°34' E 007°25'611.0
2018-Feb-22 21:59N 55°29' E 007°32'511.3
2018-Feb-22 21:30N 55°25' E 007°38'510.6
2018-Feb-22 21:00N 55°25' E 007°47'611.0
2018-Feb-22 20:30N 55°25' E 007°57'511.0
2018-Feb-22 20:00N 55°25' E 008°06'510.6
2018-Feb-22 19:30N 55°26' E 008°15'4 8.1
2018-Feb-22 18:58N 55°29' E 008°22'3 7.3
2018-Feb-22 18:30N 55°27' E 008°27'1 1.0
2018-Feb-22 17:59N 55°27' E 008°28'0 0.0
2018-Feb-22 17:26N 55°27' E 008°28'0 0.0
2018-Feb-22 16:59N 55°27' E 008°28'0 0.0
2018-Feb-22 16:02N 55°27' E 008°28'0 0.0
2018-Feb-22 15:47N 55°27' E 008°28'0 0.0
2018-Feb-22 15:29N 55°27' E 008°28'0 0.0
2018-Feb-22 14:59N 55°27' E 008°28'0 0.0
2018-Feb-22 14:20N 55°27' E 008°28'0 0.0
2018-Feb-22 13:50N 55°27' E 008°28'0 0.0
2018-Feb-22 13:02N 55°27' E 008°28'0 0.0
2018-Feb-22 12:50N 55°27' E 008°28'0 0.0
2018-Feb-22 12:20N 55°27' E 008°28'0 0.0
2018-Feb-22 11:50N 55°27' E 008°28'0 0.0
2018-Feb-22 11:17N 55°27' E 008°28'0 0.0
2018-Feb-22 10:38N 55°27' E 008°28'0 0.0
2018-Feb-22 10:23N 55°27' E 008°28'0 0.0
2018-Feb-22 09:53N 55°27' E 008°28'0 0.0
2018-Feb-22 09:26N 55°27' E 008°28'0 0.0
2018-Feb-22 08:56N 55°27' E 008°28'0 0.0
2018-Feb-22 08:23N 55°27' E 008°28'0 0.0
2018-Feb-22 07:53N 55°27' E 008°28'0 0.4
2018-Feb-22 07:30N 55°27' E 008°28'4 7.0
2018-Feb-22 07:00N 55°29' E 008°23'2911.3
2018-Feb-22 04:28N 55°12' E 007°42'511.9
2018-Feb-22 04:00N 55°09' E 007°35'612.0
2018-Feb-22 03:30N 55°05' E 007°27'612.0
2018-Feb-22 03:00N 55°01' E 007°18'29611.0
2018-Feb-21 00:08N 51°14' E 002°04'1 7.9
2018-Feb-21 00:00N 51°13' E 002°02'158 9.1
2018-Feb-20 06:36N 50°01' W 001°39'4 7.7
2018-Feb-20 06:05N 49°60' W 001°45'  
2018-Feb-16 22:24N 39°07' W 009°50'410.2
2018-Feb-16 22:00N 39°03' W 009°50'510.2
2018-Feb-16 21:30N 38°58' W 009°51'1110.1
2018-Feb-16 20:24N 38°47' W 009°51'410.3
2018-Feb-16 20:00N 38°42' W 009°51'510.0
2018-Feb-16 19:29N 38°37' W 009°49'  

Dump ship's entire track history